Time;durP1;ratioP1;P1;durP2;ratioP2;P2;SDS_P1;SDS_P2;PMS_P1;PMS_P2;Temp;Humidity;BMP_temperature;BMP_pressure;BME280_temperature;BME280_humidity;BME280_pressure;Samples;Min_cycle;Max_cycle;Signal;HPM_P1;HPM_P2
2022/06/02 07:58:59;;;;;;;8.63;7.55;;;;;;;13.51;68.32;102057.34;5280382;28;20394;-74
2022/06/02 08:01:52;;;;;;;8.40;7.60;;;;;;;13.49;68.47;102049.28;5279746;28;20067;-73
2022/06/02 08:04:45;;;;;;;8.88;8.02;;;;;;;13.53;68.38;102050.38;5260556;28;20086;-73
2022/06/02 08:07:52;;;;;;;16.65;7.20;;;;;;;13.83;68.14;102055.09;5277451;28;20155;-70
2022/06/02 08:10:29;;;;;;;;;;;;;;;13.85;66.99;102052.81;5280696;28;20025;-69
2022/06/02 08:13:11;;;;;;;8.00;7.30;;;;;;;13.80;66.64;102050.03;5280167;28;19999;-69
2022/06/02 08:16:06;;;;;;;10.25;6.80;;;;;;;14.08;67.18;102056.13;5279514;28;20025;-69
2022/06/02 08:19:01;;;;;;;11.70;10.60;;;;;;;14.09;68.40;102044.69;5279903;28;20033;-69
2022/06/02 08:21:42;;;;;;;11.38;6.43;;;;;;;14.59;68.14;102043.94;5273194;28;20029;-68
2022/06/02 08:24:42;;;;;;;10.45;9.45;;;;;;;14.44;66.54;102048.41;5274521;28;20043;-68
2022/06/02 08:27:31;;;;;;;12.88;8.07;;;;;;;14.60;66.38;102057.59;5272529;28;20025;-67
2022/06/02 08:30:11;;;;;;;10.48;9.63;;;;;;;14.42;65.94;102056.28;5269185;28;20064;-71
2022/06/02 08:33:13;;;;;;;23.70;8.68;;;;;;;14.70;66.99;102057.56;5280392;28;20425;-74
2022/06/02 08:36:04;;;;;;;16.08;8.45;;;;;;;14.84;66.52;102059.69;5258070;28;20026;-68
2022/06/02 08:38:59;;;;;;;18.17;8.32;;;;;;;14.96;66.63;102060.19;5259804;28;20033;-74
2022/06/02 08:42:07;;;;;;;11.30;10.20;;;;;;;14.73;64.84;102068.13;5262131;28;20036;-70
2022/06/02 08:44:57;;;;;;;8.25;7.45;;;;;;;14.53;63.38;102071.03;5257959;28;20069;-68
2022/06/02 08:47:53;;;;;;;8.98;8.07;;;;;;;14.50;65.10;102074.38;5258704;28;20457;-67
2022/06/02 08:50:46;;;;;;;8.32;7.53;;;;;;;14.51;65.26;102076.03;5257849;28;20435;-68
2022/06/02 08:53:56;;;;;;;8.75;7.68;;;;;;;14.53;65.55;102074.66;5259316;28;20047;-67
2022/06/02 08:56:55;;;;;;;8.43;7.22;;;;;;;14.54;64.65;102067.94;5275704;28;20537;-70
2022/06/02 08:59:44;;;;;;;7.03;6.35;;;;;;;14.50;63.16;102074.38;5268614;28;20029;-68
2022/06/02 09:02:41;;;;;;;7.30;6.68;;;;;;;14.57;65.03;102070.19;5300352;28;20416;-68
2022/06/02 09:05:49;;;;;;;7.55;6.53;;;;;;;14.97;65.36;102067.41;5282254;28;20028;-69
2022/06/02 09:08:37;;;;;;;13.85;11.27;;;;;;;14.89;62.62;102065.25;5275538;28;20029;-68
2022/06/02 09:11:21;;;;;;;12.80;11.50;;;;;;;15.18;63.10;102057.75;5261102;28;20357;-68
2022/06/02 09:14:26;;;;;;;5.82;5.30;;;;;;;15.34;62.86;102060.44;5253954;28;20520;-67
2022/06/02 09:17:05;;;;;;;6.18;5.22;;;;;;;15.35;60.52;102068.53;5249852;28;20034;-67
2022/06/02 09:20:28;;;;;;;5.50;5.05;;;;;;;15.49;61.09;102079.84;5263317;28;20473;-68
2022/06/02 09:23:36;;;;;;;7.18;6.15;;;;;;;15.35;59.27;102070.50;5265111;28;20057;-68
2022/06/02 09:26:39;;;;;;;5.47;4.97;;;;;;;15.36;59.17;102066.56;5264291;28;20033;-69
2022/06/02 09:29:39;;;;;;;6.68;6.13;;;;;;;15.49;59.32;102065.06;5245287;28;20087;-67
2022/06/02 09:32:27;;;;;;;7.53;6.72;;;;;;;15.51;58.57;102065.59;5240407;28;20037;-68
2022/06/02 09:35:33;;;;;;;6.53;5.93;;;;;;;15.79;59.56;102062.00;5256070;28;20024;-68
2022/06/02 09:38:19;;;;;;;6.93;6.20;;;;;;;15.81;57.60;102058.91;5264229;28;20727;-67
2022/06/02 09:41:12;;;;;;;7.53;6.55;;;;;;;15.61;56.23;102059.91;5264228;28;20025;-68
2022/06/02 09:44:16;;;;;;;6.78;5.63;;;;;;;15.86;56.50;102058.84;5264825;28;20082;-69
2022/06/02 09:47:26;;;;;;;6.45;5.85;;;;;;;16.04;56.64;102052.50;5254849;28;20033;-68
2022/06/02 09:50:24;;;;;;;5.70;5.20;;;;;;;16.12;54.95;102050.19;5242179;28;20497;-68
2022/06/02 09:53:15;;;;;;;5.65;5.00;;;;;;;16.24;52.70;102050.59;5249532;28;20065;-69
2022/06/02 09:55:52;;;;;;;39.97;35.63;;;;;;;16.22;55.48;102061.25;5260735;28;20052;-68
2022/06/02 09:58:41;;;;;;;9.25;8.35;;;;;;;16.22;55.11;102052.84;5280386;28;20084;-68
2022/06/02 10:01:24;;;;;;;6.75;5.78;;;;;;;16.31;55.54;102053.88;5260885;28;20124;-67
2022/06/02 10:04:15;;;;;;;5.88;5.38;;;;;;;16.11;54.74;102062.50;5244102;28;20417;-67
2022/06/02 10:07:28;;;;;;;8.43;7.63;;;;;;;16.04;55.32;102060.06;5243151;28;20045;-68
2022/06/02 10:10:34;;;;;;;8.45;7.68;;;;;;;15.99;57.31;102055.34;5239794;28;20044;-69
2022/06/02 10:13:30;;;;;;;6.55;5.80;;;;;;;16.20;54.67;102052.31;5243196;28;20035;-69
2022/06/02 10:16:17;;;;;;;6.13;5.60;;;;;;;16.18;53.91;102048.97;5242137;28;20484;-68
2022/06/02 10:19:16;;;;;;;6.50;6.00;;;;;;;16.26;53.82;102046.38;5246372;28;20039;-68
2022/06/02 10:22:14;;;;;;;6.10;5.55;;;;;;;16.47;54.03;102046.09;5257423;28;20024;-68
2022/06/02 10:25:23;;;;;;;7.88;7.18;;;;;;;16.66;54.66;102051.69;5252076;28;20041;-68
2022/06/02 10:28:00;;;;;;;12.27;6.53;;;;;;;16.77;54.77;102050.44;5256608;28;20025;-68
2022/06/02 10:31:09;;;;;;;7.70;7.07;;;;;;;16.71;53.68;102054.44;5247565;28;20033;-66
2022/06/02 10:34:16;;;;;;;8.60;7.80;;;;;;;16.84;53.86;102048.09;5261298;28;20025;-69
2022/06/02 10:36:57;;;;;;;12.45;6.10;;;;;;;17.10;54.77;102042.09;5255280;28;20060;-68
2022/06/02 10:39:47;;;;;;;6.82;6.13;;;;;;;17.22;52.17;102044.44;5243770;28;20497;-70
2022/06/02 10:42:48;;;;;;;5.90;5.38;;;;;;;17.22;50.48;102036.03;5242124;28;20025;-70
2022/06/02 10:45:28;;;;;;;6.15;5.65;;;;;;;17.14;50.90;102032.78;5250857;28;20412;-69
2022/06/02 10:48:26;;;;;;;6.47;5.95;;;;;;;17.11;51.61;102035.38;5253036;28;20033;-70
2022/06/02 10:51:16;;;;;;;8.82;7.95;;;;;;;17.06;52.21;102041.06;5241338;28;20021;-69
2022/06/02 10:54:09;;;;;;;8.38;7.53;;;;;;;17.04;52.42;102038.56;5254169;28;20072;-69
2022/06/02 10:56:52;;;;;;;10.93;7.63;;;;;;;16.87;52.57;102038.25;5250222;28;20040;-68
2022/06/02 10:59:59;;;;;;;7.15;6.45;;;;;;;16.86;52.39;102025.41;5253503;28;20026;-67
2022/06/02 11:02:49;;;;;;;7.30;5.45;;;;;;;17.04;52.31;102026.50;5259626;28;20067;-68
2022/06/02 11:05:26;;;;;;;5.72;5.22;;;;;;;17.22;51.19;102025.66;5252477;28;20032;-68
2022/06/02 11:08:33;;;;;;;5.45;4.90;;;;;;;17.51;50.47;102027.38;5263032;28;20033;-68
2022/06/02 11:11:33;;;;;;;7.32;4.72;;;;;;;17.57;49.05;102026.16;5244319;28;20101;-68
2022/06/02 11:14:46;;;;;;;6.28;5.70;;;;;;;17.70;50.75;102025.34;5242030;28;20124;-66
2022/06/02 11:17:38;;;;;;;8.02;5.78;;;;;;;17.69;50.38;102026.50;5241310;28;20389;-69
2022/06/02 11:20:33;;;;;;;7.65;6.95;;;;;;;17.71;50.90;102010.16;5242975;28;20470;-68
2022/06/02 11:23:40;;;;;;;6.63;6.07;;;;;;;18.03;49.82;102016.88;5247284;28;20033;-69
2022/06/02 11:26:29;;;;;;;5.88;3.75;;;;;;;18.17;47.62;102019.69;5246048;28;20025;-68
2022/06/02 11:29:19;;;;;;;4.75;4.20;;;;;;;18.17;46.51;102017.69;5246924;28;20037;-71
2022/06/02 11:32:08;;;;;;;6.20;4.72;;;;;;;18.31;45.67;102016.88;5244270;28;20079;-69
2022/06/02 11:35:13;;;;;;;4.97;4.47;;;;;;;18.42;45.31;102012.69;5241745;28;20033;-70
2022/06/02 11:37:47;;;;;;;4.43;4.03;;;;;;;18.40;44.49;102010.19;5244330;28;20029;-69
2022/06/02 11:40:28;;;;;;;4.15;3.55;;;;;;;18.45;43.99;102012.06;5248057;28;20067;-68
2022/06/02 11:43:13;;;;;;;3.95;3.60;;;;;;;18.66;44.76;101999.22;5256560;28;20037;-67
2022/06/02 11:46:05;;;;;;;4.85;4.45;;;;;;;18.54;44.35;102004.56;5246198;28;20416;-67
2022/06/02 11:49:13;;;;;;;5.63;5.13;;;;;;;18.58;45.38;101991.50;5247160;28;20060;-68
2022/06/02 11:52:00;;;;;;;5.20;4.80;;;;;;;18.63;46.34;101990.56;5250875;28;20033;-67
2022/06/02 11:54:49;;;;;;;8.48;7.63;;;;;;;18.97;46.31;101986.41;5244597;28;20040;-67
2022/06/02 11:57:44;;;;;;;20.73;18.58;;;;;;;19.04;46.45;101993.25;5261691;28;20044;-67
2022/06/02 12:00:44;;;;;;;6.93;6.32;;;;;;;18.92;45.66;101981.78;5258473;28;20472;-67
2022/06/02 12:03:27;;;;;;;7.38;5.40;;;;;;;18.89;46.45;101982.38;5241660;28;20476;-67
2022/06/02 12:06:36;;;;;;;7.45;5.78;;;;;;;19.18;45.11;101987.56;5244322;28;20079;-67
2022/06/02 12:09:45;;;;;;;5.78;5.22;;;;;;;19.06;45.32;101971.28;5229205;28;20026;-67
2022/06/02 12:12:19;;;;;;;5.78;5.18;;;;;;;19.14;44.65;101980.09;5246519;28;20033;-67
2022/06/02 12:15:20;;;;;;;6.22;4.88;;;;;;;19.28;44.16;101978.88;5261251;28;20056;-66
2022/06/02 12:18:10;;;;;;;5.03;4.63;;;;;;;19.43;44.57;101962.72;5253570;28;20045;-66
2022/06/02 12:20:50;;;;;;;4.53;3.75;;;;;;;19.56;43.42;101956.19;5241697;28;20108;-66
2022/06/02 12:23:33;;;;;;;4.45;4.05;;;;;;;19.46;41.99;101962.09;5240803;28;20033;-67
2022/06/02 12:26:17;;;;;;;3.90;3.45;;;;;;;19.51;40.25;101959.97;5259687;28;20492;-67
2022/06/02 12:29:19;;;;;;;7.57;6.88;;;;;;;19.63;41.55;101956.53;5240806;28;20025;-67
2022/06/02 12:32:20;;;;;;;4.00;3.60;;;;;;;19.66;39.90;101955.06;5241164;28;20018;-67
2022/06/02 12:35:05;;;;;;;3.35;3.05;;;;;;;19.91;40.27;101951.53;5240541;28;20029;-67
2022/06/02 12:37:55;;;;;;;5.22;4.60;;;;;;;19.87;41.37;101953.34;5241651;28;20029;-68
2022/06/02 12:40:36;;;;;;;6.53;5.07;;;;;;;20.13;42.13;101946.97;5240947;28;20049;-66
2022/06/02 12:43:13;;;;;;;4.68;4.25;;;;;;;20.07;40.87;101953.88;5242080;28;20024;-67
2022/06/02 12:45:47;;;;;;;4.72;4.20;;;;;;;19.77;41.35;101948.03;5265575;28;20037;-67
2022/06/02 12:48:53;;;;;;;4.00;3.70;;;;;;;19.98;41.26;101936.97;5256748;28;20022;-67
2022/06/02 12:51:53;;;;;;;4.85;3.42;;;;;;;20.24;41.10;101927.75;5245117;28;20112;-67
2022/06/02 12:54:40;;;;;;;3.83;3.00;;;;;;;20.55;40.77;101930.44;5254831;28;20052;-67
2022/06/02 12:57:18;;;;;;;5.00;4.50;;;;;;;20.18;40.15;101938.34;5260337;28;20106;-66
2022/06/02 13:00:07;;;;;;;4.10;3.65;;;;;;;20.48;40.79;101938.53;5265682;28;20108;-67
2022/06/02 13:02:57;;;;;;;4.80;4.40;;;;;;;20.52;39.70;101933.91;5260558;28;20025;-66
2022/06/02 13:05:59;;;;;;;7.47;4.95;;;;;;;20.57;40.75;101928.97;5264867;28;20488;-66
2022/06/02 13:08:58;;;;;;;4.32;3.92;;;;;;;20.75;40.31;101923.31;5260175;28;20021;-67
2022/06/02 13:11:50;;;;;;;7.57;5.55;;;;;;;20.82;39.87;101924.47;5244540;28;20026;-66
2022/06/02 13:14:22;;;;;;;6.43;5.53;;;;;;;20.82;40.76;101929.28;5243945;28;20036;-68
2022/06/02 13:17:22;;;;;;;4.57;4.18;;;;;;;21.03;39.99;101924.59;5255090;28;20029;-68
2022/06/02 13:20:15;;;;;;;4.32;3.92;;;;;;;21.20;40.76;101923.75;5265179;28;20027;-67
2022/06/02 13:23:05;;;;;;;4.25;3.53;;;;;;;21.21;39.36;101924.56;5264942;28;20029;-67
2022/06/02 13:26:15;;;;;;;4.32;4.00;;;;;;;21.21;39.92;101910.47;5263157;28;20025;-66
2022/06/02 13:29:04;;;;;;;4.70;4.30;;;;;;;21.15;38.59;101921.09;5244480;28;20038;-66
2022/06/02 13:31:45;;;;;;;4.45;3.70;;;;;;;21.37;38.40;101913.56;5243048;28;20025;-68
2022/06/02 13:34:50;;;;;;;3.88;3.58;;;;;;;21.38;38.46;101918.03;5243828;28;20041;-67
2022/06/02 13:37:34;;;;;;;4.10;3.80;;;;;;;21.48;37.92;101918.53;5260882;28;20047;-67
2022/06/02 13:40:12;;;;;;;6.15;3.78;;;;;;;21.61;37.26;101922.28;5263108;28;20123;-67
2022/06/02 13:43:04;;;;;;;4.38;3.97;;;;;;;21.46;37.21;101914.38;5263512;28;20091;-67
2022/06/02 13:45:57;;;;;;;5.40;3.50;;;;;;;21.66;36.12;101924.91;5249189;28;20029;-67
2022/06/02 13:48:56;;;;;;;3.80;3.40;;;;;;;21.73;35.22;101920.72;5257551;28;20044;-67
2022/06/02 13:51:52;;;;;;;4.05;3.00;;;;;;;21.86;36.42;101914.03;5260048;28;20087;-67
2022/06/02 13:58:00;;;;;;;6.38;4.90;;;;;;;21.96;36.24;101909.97;5242894;28;20045;-67
2022/06/02 14:00:41;;;;;;;5.72;4.68;;;;;;;21.89;37.20;101910.53;5253755;28;20108;-67
2022/06/02 14:03:46;;;;;;;4.50;3.78;;;;;;;21.78;37.21;101907.28;5262760;28;20105;-68
2022/06/02 14:06:53;;;;;;;4.00;3.70;;;;;;;21.84;36.28;101908.72;5262341;28;20469;-67
2022/06/02 14:09:39;;;;;;;;;;;;;;;21.93;35.70;101909.50;5264204;28;20044;-68
2022/06/02 14:12:48;;;;;;;5.88;3.92;;;;;;;21.67;37.10;101909.63;5260320;28;19912;-67
2022/06/02 14:15:50;;;;;;;7.35;4.07;;;;;;;21.83;36.87;101903.41;5249691;28;20038;-65
2022/06/02 14:18:52;;;;;;;5.28;3.92;;;;;;;21.98;36.75;101902.00;5250776;28;20369;-66
2022/06/02 14:21:44;;;;;;;4.40;4.10;;;;;;;22.01;36.88;101904.97;5252439;28;20029;-67
2022/06/02 14:24:24;;;;;;;6.60;5.30;;;;;;;22.03;36.26;101891.31;5249192;28;20025;-68
2022/06/02 14:27:17;;;;;;;6.03;4.55;;;;;;;22.01;36.51;101893.69;5248520;28;20037;-68
2022/06/02 14:30:16;;;;;;;4.53;4.18;;;;;;;21.97;36.33;101889.06;5245263;28;20033;-68
2022/06/02 14:32:55;;;;;;;4.32;3.45;;;;;;;22.24;36.95;101893.34;5262346;28;20025;-68
2022/06/02 14:35:42;;;;;;;10.93;4.05;;;;;;;22.41;37.10;101886.75;5242987;28;20025;-68
2022/06/02 14:38:32;;;;;;;5.20;4.05;;;;;;;22.23;35.81;101881.22;5250141;28;20029;-68
2022/06/02 14:41:19;;;;;;;71.70;65.03;;;;;;;22.13;36.63;101882.44;5242561;28;20037;-68
2022/06/02 14:44:15;;;;;;;3.85;3.55;;;;;;;22.25;36.26;101878.91;5249447;28;20026;-65
2022/06/02 14:46:56;;;;;;;3.20;2.80;;;;;;;22.01;37.33;101882.38;5254850;28;20029;-67
2022/06/02 14:49:42;;;;;;;5.70;5.20;;;;;;;22.02;36.68;101881.19;5257382;28;20032;-66
2022/06/02 14:52:57;;;;;;;6.05;5.55;;;;;;;22.20;35.82;101886.75;5244403;28;20033;-66
2022/06/02 14:55:50;;;;;;;4.10;3.58;;;;;;;21.69;35.44;101887.53;5253562;28;20052;-67
2022/06/02 14:58:40;;;;;;;4.45;3.22;;;;;;;21.54;35.59;101888.13;5241483;28;20128;-67
2022/06/02 15:01:36;;;;;;;4.45;4.00;;;;;;;21.66;36.59;101874.13;5244875;28;20034;-67
2022/06/02 15:04:35;;;;;;;3.58;3.28;;;;;;;21.80;37.31;101878.69;5260279;28;20103;-67
2022/06/02 15:07:28;;;;;;;4.18;3.78;;;;;;;21.81;36.96;101881.16;5250743;28;20040;-66
2022/06/02 15:10:24;;;;;;;6.40;4.07;;;;;;;21.84;36.09;101877.66;5241505;28;20381;-68
2022/06/02 15:13:13;;;;;;;3.40;3.10;;;;;;;21.76;35.64;101872.06;5255594;28;20384;-67
2022/06/02 15:16:09;;;;;;;4.25;3.30;;;;;;;21.71;35.19;101871.09;5260778;28;20040;-67
2022/06/02 15:19:01;;;;;;;;;;;;;;;21.95;34.92;101868.78;5241291;28;20064;-67
2022/06/02 15:21:48;;;;;;;7.90;7.10;;;;;;;21.75;34.93;101870.41;5247399;28;19995;-68
2022/06/02 15:24:57;;;;;;;2.78;2.50;;;;;;;21.63;35.00;101863.50;5250971;28;20030;-67
2022/06/02 15:27:43;;;;;;;6.50;4.22;;;;;;;21.76;34.93;101860.78;5257925;28;20036;-67
2022/06/02 15:30:35;;;;;;;5.22;4.72;;;;;;;21.89;35.10;101865.34;5257513;28;20662;-67
2022/06/02 15:33:40;;;;;;;2.80;2.60;;;;;;;21.88;35.82;101869.31;5255329;28;20487;-67
2022/06/02 15:36:39;;;;;;;3.92;3.63;;;;;;;21.86;35.05;101866.03;5283442;28;20082;-68
2022/06/02 15:39:31;;;;;;;2.55;2.35;;;;;;;21.81;35.40;101855.75;5240679;28;20508;-68
2022/06/02 15:42:36;;;;;;;2.40;2.20;;;;;;;21.86;35.21;101857.56;5250064;28;20429;-68
2022/06/02 15:45:22;;;;;;;3.72;3.05;;;;;;;21.81;35.29;101855.75;5260583;28;20064;-68
2022/06/02 15:48:17;;;;;;;7.00;6.38;;;;;;;21.92;35.49;101859.00;5261559;28;20163;-68
2022/06/02 15:51:20;;;;;;;3.45;2.72;;;;;;;21.71;34.56;101856.97;5253211;28;20033;-67
2022/06/02 15:54:22;;;;;;;3.00;2.70;;;;;;;21.71;34.74;101856.16;5248247;28;20392;-68
2022/06/02 15:57:15;;;;;;;3.85;2.60;;;;;;;21.87;35.30;101856.38;5247201;28;20056;-68
2022/06/02 16:00:01;;;;;;;5.00;3.10;;;;;;;21.84;34.83;101846.59;5247110;28;20084;-68
2022/06/02 16:03:36;;;;;;;2.90;2.58;;;;;;;21.87;34.73;101837.44;5259998;28;20504;-68
2022/06/02 16:06:41;;;;;;;3.97;3.50;;;;;;;21.87;35.67;101839.44;5235911;28;20428;-70
2022/06/02 16:12:49;;;;;;;5.28;2.45;;;;;;;21.63;34.99;101831.63;5255573;28;20045;-69
2022/06/02 16:15:32;;;;;;;6.47;2.20;;;;;;;21.73;34.72;101836.03;5256692;28;20393;-68
2022/06/02 16:18:07;;;;;;;5.03;2.50;;;;;;;21.81;34.32;101832.34;5251636;28;20103;-68
2022/06/02 16:21:22;;;;;;;2.55;2.25;;;;;;;21.82;34.58;101825.53;5263922;28;20049;-70
2022/06/02 16:24:06;;;;;;;1.90;1.80;;;;;;;21.69;33.87;101818.97;5265245;28;20041;-69
2022/06/02 16:26:51;;;;;;;3.40;2.33;;;;;;;21.66;36.51;101823.31;5264900;28;20413;-69
2022/06/02 16:29:34;;;;;;;5.07;2.42;;;;;;;21.76;34.87;101819.25;5250256;28;20033;-69
2022/06/02 16:32:27;;;;;;;2.95;2.70;;;;;;;21.76;35.20;101812.78;5282922;28;20077;-69
2022/06/02 16:35:36;;;;;;;2.50;2.20;;;;;;;21.92;35.16;101816.66;5247974;28;20389;-70
2022/06/02 16:38:38;;;;;;;3.05;2.80;;;;;;;22.15;34.62;101812.28;5243846;28;20035;-70
2022/06/02 16:41:15;;;;;;;2.83;2.55;;;;;;;22.05;34.71;101818.38;5245242;28;20079;-69
2022/06/02 16:43:46;;;;;;;3.22;2.53;;;;;;;21.96;34.32;101819.59;5264280;28;20388;-70
2022/06/02 16:46:41;;;;;;;3.72;2.60;;;;;;;22.04;34.25;101819.53;5270961;28;20033;-68
2022/06/02 16:49:43;;;;;;;3.30;3.00;;;;;;;21.97;35.04;101824.91;5249878;28;20067;-70
2022/06/02 16:53:09;;;;;;;4.63;3.13;;;;;;;22.17;35.12;101817.63;5243870;28;20032;-69
2022/06/02 16:55:49;;;;;;;4.90;2.63;;;;;;;21.93;34.89;101823.94;5219603;28;20553;-69
2022/06/02 16:58:44;;;;;;;4.25;2.40;;;;;;;22.24;35.16;101819.91;5243344;28;20088;-70
2022/06/02 17:01:53;;;;;;;5.65;3.38;;;;;;;22.08;34.42;101823.31;5243649;28;20040;-70
2022/06/02 17:04:54;;;;;;;2.38;2.10;;;;;;;22.19;34.85;101825.72;5242521;28;20053;-70
2022/06/02 17:08:02;;;;;;;2.92;2.60;;;;;;;22.23;34.53;101818.25;5250032;28;20026;-69
2022/06/02 17:11:07;;;;;;;1.75;1.65;;;;;;;22.37;35.06;101821.63;5242716;28;20052;-71
2022/06/02 17:14:02;;;;;;;3.28;2.38;;;;;;;22.34;33.09;101819.47;5242865;28;20121;-71
2022/06/02 17:16:54;;;;;;;2.65;2.45;;;;;;;22.26;33.33;101818.38;5242480;28;20513;-71
2022/06/02 17:19:53;;;;;;;3.65;2.85;;;;;;;22.17;33.16;101811.97;5244895;28;20039;-72
2022/06/02 17:22:43;;;;;;;3.78;2.60;;;;;;;22.25;32.46;101821.56;5243525;28;20033;-74
2022/06/02 17:25:36;;;;;;;2.30;2.10;;;;;;;22.08;32.85;101825.31;5246189;28;20491;-73
2022/06/02 17:29:07;;;;;;;3.15;2.85;;;;;;;22.39;32.18;101822.09;5256630;28;20033;-73
